Time;durP1;ratioP1;P1;durP2;ratioP2;P2;SDS_P1;SDS_P2;PMS_P1;PMS_P2;Temp;Humidity;BMP_temperature;BMP_pressure;BME280_temperature;BME280_humidity;BME280_pressure;Samples;Min_cycle;Max_cycle;Signal;HPM_P1;HPM_P2
2024/04/28 00:02:24;;;;;;;1.85;0.30;;;13.70;43.90;;;9.36;67.36;94579.78;5300159;27;20005;-49
2024/04/28 00:04:49;;;;;;;0.32;0.25;;;13.60;43.90;;;9.27;64.30;94574.28;5293289;27;20013;-50
2024/04/28 00:07:15;;;;;;;1.20;0.30;;;13.60;43.90;;;9.29;68.57;94566.03;5269627;27;20448;-49
2024/04/28 00:09:41;;;;;;;0.40;0.30;;;13.60;44.10;;;9.25;66.54;94558.63;5298480;26;20395;-48
2024/04/28 00:12:07;;;;;;;1.40;0.38;;;13.50;44.10;;;9.20;65.10;94552.56;5297946;27;20009;-48
2024/04/28 00:14:33;;;;;;;0.70;0.38;;;13.50;44.10;;;9.21;66.01;94554.13;5300379;26;20004;-49
2024/04/28 00:16:59;;;;;;;0.50;0.30;;;13.50;44.20;;;9.19;66.82;94540.34;5298827;27;20431;-48
2024/04/28 00:19:24;;;;;;;0.32;0.30;;;13.40;44.20;;;9.22;65.14;94531.81;5293934;27;20014;-49
2024/04/28 00:21:50;;;;;;;0.50;0.40;;;13.40;44.30;;;9.31;62.66;94530.16;5301783;27;20009;-47
2024/04/28 00:24:16;;;;;;;1.10;0.45;;;13.40;44.10;;;9.53;61.74;94531.50;5304454;26;20020;-47
2024/04/28 00:26:42;;;;;;;0.95;0.32;;;13.50;44.20;;;9.63;61.03;94534.06;5294086;27;20006;-47
2024/04/28 00:29:08;;;;;;;1.58;0.52;;;13.50;44.10;;;9.72;59.86;94546.44;5301215;27;20009;-49
2024/04/28 00:31:33;;;;;;;0.82;0.32;;;13.60;44.10;;;9.86;59.75;94541.22;5306379;26;20480;-48
2024/04/28 00:33:59;;;;;;;0.52;0.40;;;13.70;44.00;;;9.99;59.52;94544.25;5298251;27;20354;-49
2024/04/28 00:36:25;;;;;;;0.30;0.30;;;13.70;43.90;;;10.07;57.97;94547.06;5301100;27;20028;-52
2024/04/28 00:38:51;;;;;;;1.75;0.40;;;13.80;43.80;;;10.16;57.65;94549.88;5300660;27;20005;-49
2024/04/28 00:41:16;;;;;;;1.75;0.40;;;13.90;43.60;;;10.19;58.22;94541.34;5298329;27;20464;-55
2024/04/28 00:43:42;;;;;;;0.77;0.40;;;14.00;43.50;;;10.17;60.95;94540.81;5296770;26;20020;-54
2024/04/28 00:46:09;;;;;;;0.52;0.40;;;14.00;43.50;;;10.03;61.43;94534.59;5299272;26;20020;-50
2024/04/28 00:48:35;;;;;;;0.25;0.25;;;14.00;43.50;;;9.85;63.02;94536.19;5298797;27;20020;-50
2024/04/28 00:51:01;;;;;;;0.30;0.20;;;14.00;43.50;;;9.67;62.83;94540.38;5298444;27;20013;-52
2024/04/28 00:53:29;;;;;;;0.30;0.30;;;14.00;43.60;;;9.68;61.89;94542.75;5299651;26;20120;-51
2024/04/28 00:55:57;;;;;;;0.30;0.30;;;14.00;43.60;;;9.91;59.61;94553.66;5292296;26;20060;-53
2024/04/28 00:58:23;;;;;;;0.40;0.30;;;13.90;43.60;;;10.01;61.41;94563.38;5289188;27;20020;-51
2024/04/28 01:00:49;;;;;;;0.40;0.30;;;14.00;43.70;;;10.01;60.04;94568.72;5303006;26;20009;-53
2024/04/28 01:03:16;;;;;;;0.50;0.30;;;14.00;43.70;;;9.99;60.26;94578.84;5303742;26;20023;-51
2024/04/28 01:05:44;;;;;;;0.43;0.30;;;14.00;43.60;;;9.92;63.37;94579.97;5300473;27;20019;-53
2024/04/28 01:08:10;;;;;;;0.57;0.35;;;14.10;43.80;;;9.94;62.00;94571.72;5296938;26;20024;-52
2024/04/28 01:10:36;;;;;;;0.55;0.30;;;14.00;43.80;;;9.94;60.50;94566.41;5292536;27;20024;-54
2024/04/28 01:13:02;;;;;;;1.60;0.30;;;14.10;43.80;;;9.92;63.78;94558.69;5303606;26;20467;-50
2024/04/28 01:15:29;;;;;;;0.55;0.30;;;14.10;43.90;;;9.86;60.40;94569.69;5300476;27;20480;-49
2024/04/28 01:17:56;;;;;;;0.30;0.28;;;14.10;43.90;;;9.93;61.71;94570.94;5302938;27;20012;-47
2024/04/28 01:20:22;;;;;;;0.20;0.20;;;14.10;43.90;;;9.95;63.29;94568.75;5302512;26;20024;-51
2024/04/28 01:22:48;;;;;;;0.60;0.50;;;14.10;43.90;;;10.03;59.60;94574.50;5308309;26;20458;-51
2024/04/28 01:25:15;;;;;;;0.22;0.20;;;14.10;43.90;;;10.12;62.32;94575.47;5297306;26;20009;-49
2024/04/28 01:27:41;;;;;;;0.30;0.30;;;14.20;44.00;;;10.05;64.57;94575.03;5304480;27;20015;-51
2024/04/28 01:30:08;;;;;;;0.30;0.30;;;14.20;44.10;;;9.97;66.19;94565.84;5303172;27;20024;-51
2024/04/28 01:32:34;;;;;;;0.35;0.35;;;14.20;44.30;;;9.83;67.77;94560.41;5301684;27;20486;-48
2024/04/28 01:35:01;;;;;;;1.30;0.25;;;14.10;44.40;;;9.76;65.72;94564.47;5303681;27;20013;-48
2024/04/28 01:37:27;;;;;;;0.40;0.30;;;14.10;44.40;;;9.68;67.54;94558.72;5300314;27;20016;-48
2024/04/28 01:39:53;;;;;;;0.40;0.32;;;14.10;44.60;;;9.67;66.21;94565.09;5277762;27;20013;-49
2024/04/28 01:42:18;;;;;;;0.45;0.30;;;14.00;44.60;;;9.65;66.77;94577.91;5303724;27;20491;-52
2024/04/28 01:44:44;;;;;;;0.20;0.20;;;14.00;44.80;;;9.55;69.97;94567.34;5295523;27;20087;-53
2024/04/28 01:47:10;;;;;;;0.50;0.30;;;14.00;45.00;;;9.56;70.07;94576.13;5300960;27;20367;-50
2024/04/28 01:49:36;;;;;;;0.40;0.40;;;13.90;45.10;;;9.51;68.69;94584.94;5301916;26;20005;-52
2024/04/28 01:52:02;;;;;;;1.00;0.40;;;13.90;45.20;;;9.51;69.50;94587.59;5304291;27;20009;-48
2024/04/28 01:54:27;;;;;;;0.32;0.30;;;13.90;46.00;;;9.52;70.91;94585.75;5303086;27;20093;-50
2024/04/28 01:56:53;;;;;;;0.43;0.30;;;13.90;45.50;;;9.48;70.20;94590.81;5302840;27;20009;-48
2024/04/28 01:59:19;;;;;;;0.22;0.22;;;13.80;45.60;;;9.44;70.32;94595.13;5303543;27;20005;-48
2024/04/28 02:01:45;;;;;;;0.30;0.30;;;13.90;45.70;;;9.38;71.57;94597.03;5295616;27;20025;-49
2024/04/28 02:04:10;;;;;;;0.45;0.40;;;13.80;45.80;;;9.42;69.47;94598.06;5302445;27;20056;-49
2024/04/28 02:06:36;;;;;;;0.30;0.30;;;13.80;45.80;;;9.38;69.11;94594.38;5301982;27;20001;-47
2024/04/28 02:09:02;;;;;;;0.70;0.57;;;13.70;45.80;;;9.36;67.37;94593.06;5300254;26;20483;-47
2024/04/28 02:11:28;;;;;;;0.57;0.50;;;13.80;45.80;;;9.36;67.57;94585.09;5303622;27;20047;-49
2024/04/28 02:13:54;;;;;;;0.50;0.40;;;13.70;45.80;;;9.36;68.02;94590.41;5302353;27;20005;-48
2024/04/28 02:16:19;;;;;;;0.30;0.30;;;13.70;45.80;;;9.26;70.17;94581.47;5302981;27;20333;-49
2024/04/28 02:18:45;;;;;;;0.70;0.60;;;13.70;45.90;;;9.25;68.98;94587.84;5302900;27;20010;-51
2024/04/28 02:21:11;;;;;;;0.77;0.50;;;13.70;45.90;;;9.22;70.78;94590.28;5299907;27;20025;-51
2024/04/28 02:23:37;;;;;;;0.68;0.60;;;13.60;46.00;;;9.18;70.57;94590.06;5304687;26;20087;-50
2024/04/28 02:26:03;;;;;;;0.50;0.50;;;13.60;46.20;;;9.13;70.36;94581.34;5307559;26;20017;-49
2024/04/28 02:28:29;;;;;;;0.60;0.43;;;13.50;46.20;;;9.11;71.14;94591.44;5303116;27;20436;-48
2024/04/28 02:30:55;;;;;;;1.27;0.60;;;13.50;46.30;;;9.08;71.11;94584.81;5301344;26;20075;-47
2024/04/28 02:33:21;;;;;;;0.85;0.68;;;13.50;46.40;;;9.06;70.85;94594.94;5296226;26;20020;-47
2024/04/28 02:35:47;;;;;;;0.50;0.50;;;13.50;46.50;;;9.08;71.51;94599.97;5303143;27;20087;-50
2024/04/28 02:38:13;;;;;;;0.90;0.60;;;13.50;46.60;;;9.06;72.46;94607.41;5301816;27;20005;-47
2024/04/28 02:40:38;;;;;;;0.80;0.60;;;13.50;46.70;;;9.05;72.84;94601.31;5302886;27;20037;-47
2024/04/28 02:43:04;;;;;;;0.60;0.60;;;13.40;46.80;;;9.02;73.38;94600.03;5293967;27;20372;-50
2024/04/28 02:50:58;;;;;;;0.63;0.50;;;13.40;47.00;;;9.11;72.17;94610.81;5305323;26;20090;-49
2024/04/28 02:53:24;;;;;;;0.40;0.40;;;13.40;47.00;;;9.12;73.84;94609.78;5294506;27;20455;-49
2024/04/28 02:55:50;;;;;;;0.73;0.43;;;13.50;47.20;;;9.06;74.82;94602.91;5301159;27;20028;-50
2024/04/28 02:58:16;;;;;;;0.60;0.60;;;13.50;48.00;;;9.03;74.44;94614.09;5303065;27;20048;-54
2024/04/28 03:00:42;;;;;;;1.33;0.70;;;13.40;47.30;;;9.01;75.14;94611.69;5301792;26;20009;-48
2024/04/28 03:03:07;;;;;;;0.57;0.55;;;13.40;47.40;;;8.97;76.48;94618.66;5296318;26;20005;-49
2024/04/28 03:05:33;;;;;;;0.57;0.57;;;13.40;47.60;;;8.89;76.55;94605.94;5302041;27;20020;-47
2024/04/28 03:07:59;;;;;;;0.80;0.57;;;13.40;47.70;;;8.89;74.28;94605.94;5301979;26;20086;-48
2024/04/28 03:10:25;;;;;;;0.60;0.60;;;13.30;47.80;;;8.90;72.83;94609.38;5302267;27;20044;-52
2024/04/28 03:12:50;;;;;;;1.42;0.60;;;13.30;47.80;;;8.94;74.10;94613.09;5301498;27;20024;-51
2024/04/28 03:15:16;;;;;;;0.65;0.50;;;13.40;47.90;;;8.98;73.99;94600.84;5302022;27;20040;-50
2024/04/28 03:17:42;;;;;;;0.55;0.50;;;13.30;47.90;;;8.87;75.44;94600.13;5298146;27;20017;-47
2024/04/28 03:20:08;;;;;;;1.10;0.50;;;13.40;48.00;;;8.94;74.91;94603.25;5297398;27;20015;-54
2024/04/28 03:22:34;;;;;;;0.50;0.50;;;13.30;48.00;;;8.96;73.59;94598.47;5299517;26;20009;-50
2024/04/28 03:25:00;;;;;;;0.77;0.68;;;13.30;48.60;;;8.98;72.57;94609.59;5304335;26;20019;-47
2024/04/28 03:27:25;;;;;;;0.77;0.57;;;13.30;48.00;;;9.04;71.88;94602.38;5285783;27;20020;-53
2024/04/28 03:29:51;;;;;;;1.38;0.55;;;13.40;48.00;;;9.10;72.88;94616.44;5288862;27;20008;-47
2024/04/28 03:32:17;;;;;;;0.40;0.40;;;13.40;48.00;;;9.05;74.30;94622.56;5286179;27;20020;-51
2024/04/28 03:34:43;;;;;;;0.63;0.60;;;13.40;48.10;;;9.06;74.75;94613.53;5283912;27;20009;-50
2024/04/28 03:37:09;;;;;;;1.55;0.50;;;13.40;48.10;;;8.97;74.39;94617.84;5288674;26;20019;-47
2024/04/28 03:39:35;;;;;;;1.88;0.45;;;13.40;48.10;;;9.06;75.92;94620.69;5292264;27;20079;-47
2024/04/28 03:42:01;;;;;;;1.02;0.60;;;13.40;48.20;;;9.08;75.47;94621.22;5292045;27;20009;-48
2024/04/28 03:44:26;;;;;;;0.50;0.50;;;13.40;48.30;;;9.10;73.44;94619.09;5277886;27;20080;-47
2024/04/28 03:46:52;;;;;;;0.70;0.70;;;13.40;48.20;;;9.08;75.47;94626.53;5291508;27;20009;-49
2024/04/28 03:49:18;;;;;;;0.68;0.60;;;13.50;48.30;;;9.08;75.50;94626.53;5289151;27;20032;-48
2024/04/28 03:51:44;;;;;;;1.00;0.70;;;13.50;48.40;;;9.07;74.40;94630.25;5292082;27;20009;-48
2024/04/28 03:54:10;;;;;;;1.30;0.73;;;13.50;48.40;;;9.08;75.66;94615.91;5285630;26;20083;-47
2024/04/28 03:56:36;;;;;;;1.20;0.80;;;13.50;48.50;;;9.16;74.01;94632.03;5288698;27;20087;-48
2024/04/28 03:59:02;;;;;;;1.10;0.60;;;13.50;48.50;;;9.15;75.75;94629.66;5289655;27;20409;-52
2024/04/28 04:01:28;;;;;;;0.60;0.60;;;13.50;48.50;;;9.19;75.47;94634.16;5276911;26;20005;-49
2024/04/28 04:03:54;;;;;;;1.80;0.90;;;13.50;48.60;;;9.16;76.24;94628.59;5286780;26;20087;-49
2024/04/28 04:06:21;;;;;;;0.80;0.80;;;13.60;48.70;;;9.23;76.57;94624.53;5329487;21;20009;-49
2024/04/28 04:08:49;;;;;;;0.65;0.60;;;13.60;48.70;;;9.23;74.39;94624.53;5312802;26;20075;-50
2024/04/28 04:11:15;;;;;;;0.88;0.73;;;13.60;48.70;;;9.22;76.97;94625.63;5320381;26;20278;-52
2024/04/28 04:13:42;;;;;;;0.73;0.70;;;13.60;48.80;;;9.22;75.05;94616.84;5322072;26;20348;-51
2024/04/28 04:16:08;;;;;;;1.10;0.60;;;13.60;48.90;;;9.20;75.04;94619.78;5331530;26;20054;-50
2024/04/28 04:18:34;;;;;;;1.80;0.68;;;13.60;48.80;;;9.19;76.61;94617.41;5317544;26;20004;-45
2024/04/28 04:21:00;;;;;;;2.78;0.50;;;13.50;48.80;;;9.23;75.32;94607.81;5320295;26;20016;-51
2024/04/28 04:23:27;;;;;;;2.40;0.40;;;13.60;48.90;;;9.26;72.73;94609.91;5320891;26;20004;-52
2024/04/28 04:25:53;;;;;;;1.92;0.70;;;13.60;48.90;;;9.31;75.46;94607.22;5320551;26;20036;-49
2024/04/28 04:28:19;;;;;;;1.25;0.50;;;13.60;48.90;;;9.32;74.21;94602.69;5318314;26;20008;-50
2024/04/28 04:30:45;;;;;;;1.88;0.60;;;13.60;49.50;;;9.37;73.81;94616.72;5324271;26;20074;-48
2024/04/28 04:33:11;;;;;;;1.02;0.50;;;13.70;49.00;;;9.35;76.20;94615.41;5315546;26;20012;-50
2024/04/28 04:35:37;;;;;;;0.80;0.60;;;13.70;49.10;;;9.33;76.17;94618.34;5325317;26;20012;-51
2024/04/28 04:38:03;;;;;;;1.20;0.60;;;13.70;49.10;;;9.30;75.30;94616.25;5309894;26;20020;-51
2024/04/28 04:40:29;;;;;;;2.20;0.70;;;13.70;49.10;;;9.35;74.41;94618.06;5325563;26;20019;-49
2024/04/28 04:42:55;;;;;;;1.40;0.55;;;13.70;49.00;;;9.37;74.54;94619.38;5321479;26;20009;-50
2024/04/28 04:45:21;;;;;;;1.35;0.50;;;13.70;49.00;;;9.39;74.45;94609.25;5329010;26;20017;-49
2024/04/28 04:47:46;;;;;;;0.43;0.43;;;13.70;49.00;;;9.42;72.85;94610.56;5320236;26;20019;-48
2024/04/28 04:50:12;;;;;;;1.35;0.45;;;13.70;49.00;;;9.48;73.20;94615.53;5320419;26;20081;-53
2024/04/28 04:52:38;;;;;;;0.80;0.50;;;13.80;49.00;;;9.52;73.87;94613.09;5318341;26;20081;-49
2024/04/28 04:55:04;;;;;;;0.50;0.40;;;13.80;49.00;;;9.56;74.33;94623.97;5314100;26;20033;-50
2024/04/28 04:57:30;;;;;;;0.52;0.50;;;13.80;49.00;;;9.55;75.15;94630.38;5289006;26;20015;-53
2024/04/28 04:59:56;;;;;;;0.45;0.45;;;13.90;49.10;;;9.50;75.20;94637.34;5291311;27;20016;-52
2024/04/28 05:02:21;;;;;;;1.98;0.50;;;13.90;49.10;;;9.52;74.53;94637.03;5317639;26;20362;-52
2024/04/28 05:04:47;;;;;;;1.98;0.70;;;13.90;49.00;;;9.55;74.57;94654.28;5320704;26;20016;-50
2024/04/28 05:07:13;;;;;;;1.95;1.40;;;13.90;49.00;;;9.57;74.44;94646.84;5314160;26;20002;-51
2024/04/28 05:09:39;;;;;;;4.32;2.50;;;13.90;49.00;;;9.55;73.16;94657.75;5315286;26;20014;-49
2024/04/28 05:12:05;;;;;;;1.73;0.70;;;13.90;49.00;;;9.57;73.19;94649.50;5319779;26;20472;-48
2024/04/28 05:14:31;;;;;;;0.80;0.60;;;14.00;49.00;;;9.61;70.58;94655.84;5314280;26;20009;-53
2024/04/28 05:16:56;;;;;;;1.23;0.95;;;14.00;48.90;;;9.66;72.30;94658.47;5315285;26;20016;-55
2024/04/28 05:19:22;;;;;;;0.82;0.70;;;14.10;48.80;;;9.71;71.64;94666.38;5323831;26;20426;-55
2024/04/28 05:21:48;;;;;;;2.80;1.23;;;14.10;48.80;;;9.73;72.04;94672.22;5319582;26;19996;-54
2024/04/28 05:24:14;;;;;;;1.50;0.95;;;14.10;48.70;;;9.78;71.63;94685.47;5324768;26;20076;-55
2024/04/28 05:26:40;;;;;;;2.20;1.33;;;14.20;48.70;;;9.82;71.47;94683.03;5311744;26;20019;-55
2024/04/28 05:29:07;;;;;;;2.20;1.10;;;14.20;48.60;;;9.86;71.49;94689.38;5320122;26;20005;-57
2024/04/28 05:31:33;;;;;;;1.10;0.70;;;14.30;48.60;;;9.88;69.79;94693.34;5316163;26;20012;-55
2024/04/28 05:33:59;;;;;;;1.17;0.80;;;14.40;48.40;;;9.92;70.83;94688.25;5315373;26;20012;-55
2024/04/28 05:36:24;;;;;;;0.80;0.80;;;14.40;48.30;;;9.98;71.67;94691.66;5328662;26;20017;-55
2024/04/28 05:38:50;;;;;;;1.20;0.90;;;14.50;48.40;;;10.00;71.81;94677.00;5318555;26;20016;-55
2024/04/28 05:41:16;;;;;;;1.10;0.80;;;14.50;48.30;;;10.04;70.85;94685.22;5322618;26;20005;-54
2024/04/28 05:43:42;;;;;;;0.75;0.70;;;14.50;48.30;;;10.07;72.27;94696.06;5313091;26;20016;-55
2024/04/28 05:46:08;;;;;;;1.23;0.80;;;14.60;48.30;;;10.05;75.08;94703.53;5322030;26;20013;-53
2024/04/28 05:48:34;;;;;;;1.98;0.77;;;14.60;48.40;;;10.10;74.75;94710.69;5322394;26;20515;-51
2024/04/28 05:51:01;;;;;;;0.80;0.77;;;14.60;48.40;;;10.11;74.23;94707.72;5311941;26;20023;-54
2024/04/28 05:53:27;;;;;;;1.25;1.15;;;14.70;48.50;;;10.11;73.53;94710.38;5327425;26;20023;-55
2024/04/28 05:55:53;;;;;;;2.03;1.58;;;14.70;48.40;;;10.16;70.86;94713.00;5310140;26;20005;-55
2024/04/28 05:58:23;;;;;;;1.27;0.80;;;14.80;48.40;;;10.27;73.04;94712.91;5326258;26;20470;-50
2024/04/28 06:00:49;;;;;;;0.80;0.70;;;14.80;48.40;;;10.32;74.01;94724.31;5316197;26;20000;-50
2024/04/28 06:03:16;;;;;;;1.05;0.73;;;14.90;48.40;;;10.36;70.53;94711.22;5322822;26;20514;-52
2024/04/28 06:05:42;;;;;;;2.10;0.70;;;15.00;48.30;;;10.48;70.86;94716.94;5326193;26;20004;-55
2024/04/28 06:08:09;;;;;;;1.50;0.70;;;15.10;48.20;;;10.59;71.25;94720.25;5321508;26;20005;-54
2024/04/28 06:10:35;;;;;;;0.65;0.55;;;15.10;48.20;;;10.63;72.66;94722.09;5319568;26;20050;-55
2024/04/28 06:13:01;;;;;;;0.65;0.50;;;15.30;48.20;;;10.73;72.88;94723.81;5320141;26;20054;-53
2024/04/28 06:15:27;;;;;;;0.73;0.55;;;15.30;48.20;;;10.76;73.03;94717.16;5293259;26;20004;-53
2024/04/28 06:17:53;;;;;;;0.55;0.55;;;15.40;48.20;;;10.82;73.00;94726.66;5325970;26;20019;-49
2024/04/28 06:20:18;;;;;;;0.65;0.50;;;15.50;48.20;;;10.94;68.96;94728.91;5316443;26;20016;-52
2024/04/28 06:22:44;;;;;;;3.28;2.45;;;15.60;48.60;;;11.09;70.81;94736.66;5336592;26;20475;-55
2024/04/28 06:25:10;;;;;;;1.15;0.80;;;15.80;47.90;;;11.22;71.76;94735.97;5320517;26;20462;-53
2024/04/28 06:27:36;;;;;;;1.85;0.50;;;15.90;47.90;;;11.34;73.67;94731.00;5332500;26;20015;-54
2024/04/28 06:30:02;;;;;;;3.03;0.65;;;16.00;47.90;;;11.37;69.42;94726.94;5319872;26;20471;-54
2024/04/28 06:32:28;;;;;;;0.55;0.50;;;16.10;47.90;;;11.58;70.46;94743.41;5310399;26;20376;-54
2024/04/28 06:34:54;;;;;;;0.70;0.70;;;16.30;47.80;;;11.75;68.33;94748.22;5303045;26;20013;-51
2024/04/28 06:37:19;;;;;;;2.20;0.55;;;16.50;47.60;;;11.90;65.65;94756.00;5304310;26;20013;-55
2024/04/28 06:39:45;;;;;;;0.32;0.32;;;16.70;47.20;;;12.06;64.65;94753.88;5298949;26;20013;-54
2024/04/28 06:42:11;;;;;;;0.70;0.60;;;16.80;46.80;;;12.27;67.75;94763.09;5304576;26;20415;-50
2024/04/28 06:44:37;;;;;;;0.75;0.60;;;17.10;46.80;;;12.45;68.96;94766.78;5306785;26;20593;-54
2024/04/28 06:47:03;;;;;;;1.42;1.33;;;17.20;46.70;;;12.49;68.90;94767.78;5319173;26;20011;-50
2024/04/28 06:49:28;;;;;;;1.90;1.70;;;17.40;46.60;;;12.49;65.60;94767.78;5325951;26;20569;-49
2024/04/28 06:51:54;;;;;;;2.05;1.63;;;17.60;46.30;;;12.56;66.00;94780.72;5327058;26;20019;-54
2024/04/28 06:54:20;;;;;;;1.83;1.45;;;17.70;46.10;;;12.70;66.28;94794.91;5317080;26;20006;-54
2024/04/28 06:56:46;;;;;;;1.45;1.17;;;17.80;45.90;;;12.81;66.18;94790.13;5315560;26;20023;-54
2024/04/28 06:59:12;;;;;;;1.90;1.40;;;18.00;45.70;;;12.84;63.47;94799.44;5322370;26;20046;-52
2024/04/28 07:01:37;;;;;;;1.63;1.27;;;18.20;45.40;;;12.97;62.11;94825.38;5326128;26;20552;-50
2024/04/28 07:04:03;;;;;;;1.50;1.40;;;18.30;45.00;;;13.00;62.30;94838.16;5318940;26;20001;-54
2024/04/28 07:06:29;;;;;;;1.20;1.10;;;18.50;44.60;;;13.20;61.19;94853.00;5329175;26;20007;-52
2024/04/28 07:08:55;;;;;;;1.85;1.30;;;18.70;44.30;;;13.26;59.82;94854.53;5316878;26;20017;-52
2024/04/28 07:11:21;;;;;;;2.33;0.95;;;18.90;43.80;;;13.40;58.12;94857.97;5329482;26;20023;-55
2024/04/28 07:13:46;;;;;;;0.90;0.90;;;19.10;43.30;;;13.43;55.05;94860.03;5314817;26;20008;-54
2024/04/28 07:16:12;;;;;;;4.40;0.90;;;19.30;42.60;;;13.52;53.51;94870.03;5299344;26;20000;-56
2024/04/28 07:18:38;;;;;;;1.20;0.95;;;19.50;41.90;;;13.79;53.75;94882.59;5318389;26;20022;-50
2024/04/28 07:21:04;;;;;;;1.00;1.00;;;19.70;41.50;;;13.73;53.10;94894.50;5322307;26;20036;-53
2024/04/28 07:23:30;;;;;;;1.42;0.70;;;19.70;40.80;;;13.71;53.61;94899.34;5320124;26;20082;-55
2024/04/28 07:25:55;;;;;;;1.08;0.90;;;19.90;40.40;;;13.86;53.91;94901.69;5325164;26;20463;-52
2024/04/28 07:28:21;;;;;;;1.17;1.08;;;19.90;40.30;;;13.93;53.33;94899.38;5326338;26;20013;-53
2024/04/28 07:30:48;;;;;;;3.80;1.08;;;20.10;40.10;;;13.87;53.79;94911.31;5322926;26;20011;-50
2024/04/28 07:33:14;;;;;;;1.23;1.10;;;20.10;39.60;;;13.94;53.79;94911.66;5317172;26;20033;-55
2024/04/28 07:35:40;;;;;;;1.83;1.05;;;20.30;39.50;;;14.01;54.81;94914.75;5336228;26;20078;-54
2024/04/28 07:38:06;;;;;;;1.58;1.10;;;20.30;39.30;;;14.07;56.33;94923.44;5306337;26;20028;-53
2024/04/28 07:40:32;;;;;;;1.58;1.10;;;20.50;39.20;;;14.18;57.19;94938.19;5332412;26;20369;-55
2024/04/28 07:42:57;;;;;;;3.03;1.23;;;20.60;39.40;;;14.12;59.57;94942.06;5317206;26;20005;-54
2024/04/28 07:45:23;;;;;;;2.30;1.10;;;20.60;39.60;;;14.16;60.25;94953.75;5330381;26;20367;-48
2024/04/28 07:47:49;;;;;;;2.88;1.40;;;20.70;39.80;;;14.05;62.05;94960.44;5315751;26;20013;-52
2024/04/28 07:50:15;;;;;;;2.58;1.60;;;20.70;40.00;;;14.03;63.43;94957.28;5326164;26;20102;-54
2024/04/28 07:52:41;;;;;;;2.60;1.30;;;20.80;40.30;;;14.13;64.25;94970.44;5311781;26;20008;-50
2024/04/28 07:55:07;;;;;;;2.45;1.20;;;20.90;40.50;;;14.12;65.54;94969.66;5321525;26;20082;-51
2024/04/28 07:57:33;;;;;;;5.13;1.55;;;21.00;40.80;;;14.30;65.50;94984.00;5318543;26;20004;-51
2024/04/28 07:59:58;;;;;;;2.97;1.45;;;21.10;41.00;;;14.21;66.65;94983.13;5326467;26;20020;-49
2024/04/28 08:02:26;;;;;;;3.20;1.67;;;21.10;41.20;;;14.21;67.46;94995.72;5318931;26;19997;-54
2024/04/28 08:04:54;;;;;;;4.25;1.30;;;21.10;41.30;;;14.24;67.55;95001.28;5324243;26;20004;-50
2024/04/28 08:07:21;;;;;;;1.40;1.30;;;21.10;41.50;;;14.34;68.11;95014.44;5315529;26;20020;-51
2024/04/28 08:09:47;;;;;;;2.78;1.40;;;21.10;41.80;;;14.74;66.96;95024.56;5324239;26;20482;-53
2024/04/28 08:12:13;;;;;;;2.38;1.35;;;21.40;41.80;;;15.13;66.27;95037.28;5320969;26;20078;-56
2024/04/28 08:14:39;;;;;;;3.28;1.42;;;21.70;41.70;;;15.07;65.49;95029.69;5323827;26;20012;-53
2024/04/28 08:17:05;;;;;;;3.45;1.67;;;22.10;41.40;;;15.38;64.28;95029.69;5319196;26;20009;-54
2024/04/28 08:19:31;;;;;;;3.25;1.48;;;22.40;40.90;;;15.64;63.73;95040.59;5291705;26;20015;-55
2024/04/28 08:21:57;;;;;;;2.15;1.50;;;22.70;40.70;;;15.69;63.38;95049.31;5318208;26;20374;-53
2024/04/28 08:24:23;;;;;;;6.38;1.40;;;22.80;40.40;;;15.74;63.32;95045.69;5327951;26;20019;-48
2024/04/28 08:26:49;;;;;;;2.65;1.67;;;22.80;40.40;;;16.19;62.16;95043.63;5297013;26;20480;-51
2024/04/28 08:29:14;;;;;;;2.30;1.42;;;23.10;40.10;;;16.41;61.46;95053.47;5298317;26;20016;-54
2024/04/28 08:31:41;;;;;;;2.83;1.50;;;23.50;39.90;;;16.50;61.06;95063.44;5300642;26;20009;-53
2024/04/28 08:34:06;;;;;;;2.42;1.67;;;23.60;39.50;;;16.27;61.15;95071.63;5298285;26;20024;-50
2024/04/28 08:36:32;;;;;;;5.07;1.95;;;23.60;39.40;;;16.21;61.23;95075.56;5308995;26;20009;-51
2024/04/28 08:38:58;;;;;;;1.77;1.33;;;23.50;39.20;;;15.71;62.46;95087.38;5297300;26;20086;-50
2024/04/28 08:41:30;;;;;;;3.90;1.88;;;23.40;39.00;;;15.36;64.09;95082.91;5297614;26;20426;-53
2024/04/28 08:43:57;;;;;;;5.07;1.48;;;23.20;39.00;;;15.44;64.52;95082.94;5295846;26;20001;-51
2024/04/28 08:46:29;;;;;;;2.28;1.30;;;23.10;39.10;;;15.15;65.61;95075.34;5296790;26;20054;-53
2024/04/28 08:48:56;;;;;;;1.98;1.20;;;23.00;39.30;;;15.24;65.81;95083.44;5294752;26;20368;-51
2024/04/28 08:51:24;;;;;;;2.58;1.52;;;22.90;39.50;;;15.35;65.48;95086.66;5299034;26;20460;-56
2024/04/28 08:53:52;;;;;;;3.25;1.50;;;22.80;39.70;;;15.80;63.88;95089.31;5295476;26;20021;-56
2024/04/28 08:56:18;;;;;;;2.05;1.30;;;23.00;39.70;;;16.08;61.90;95082.63;5284698;26;20100;-49
2024/04/28 08:58:47;;;;;;;1.05;0.90;;;23.20;39.50;;;16.39;60.13;95093.31;5295290;26;20420;-55
2024/04/28 09:01:14;;;;;;;1.70;1.10;;;23.40;39.30;;;16.26;58.42;95112.22;5297616;26;20012;-54
2024/04/28 09:03:40;;;;;;;1.13;1.02;;;23.50;38.90;;;16.31;57.85;95112.09;5295776;26;20066;-48
2024/04/28 09:06:17;;;;;;;1.20;1.10;;;23.50;38.60;;;16.61;57.56;95107.75;5295960;26;20045;-47
2024/04/28 09:08:48;;;;;;;1.55;0.98;;;23.70;38.30;;;16.92;56.91;95114.91;5292608;26;20080;-50
2024/04/28 09:11:30;;;;;;;1.80;1.00;;;23.90;38.20;;;16.94;56.57;95107.31;5266704;26;20489;-53
2024/04/28 09:13:57;;;;;;;1.00;0.90;;;24.00;38.50;;;16.84;56.38;95106.53;5295769;26;20002;-55
2024/04/28 09:16:24;;;;;;;1.73;1.08;;;24.10;37.60;;;16.74;56.20;95120.25;5295531;26;20001;-53
2024/04/28 09:18:50;;;;;;;0.85;0.85;;;24.30;37.10;;;16.61;55.31;95123.88;5295863;26;20021;-55
2024/04/28 09:21:16;;;;;;;0.75;0.75;;;24.40;36.50;;;16.73;54.37;95131.31;5296459;26;20475;-56
2024/04/28 09:23:42;;;;;;;0.80;0.80;;;24.60;36.10;;;16.64;55.08;95142.88;5303346;26;20008;-53
2024/04/28 09:26:10;;;;;;;2.60;0.90;;;24.60;35.80;;;17.10;53.76;95128.06;5297433;26;20006;-54
2024/04/28 09:28:38;;;;;;;1.40;0.90;;;24.60;35.90;;;17.48;52.79;95126.59;5295752;26;20021;-56
2024/04/28 09:31:05;;;;;;;1.00;1.00;;;24.80;35.90;;;17.51;52.40;95144.81;5292935;26;20016;-53
2024/04/28 09:33:34;;;;;;;1.45;0.88;;;24.90;35.50;;;17.63;51.50;95155.72;5299397;26;20001;-54
2024/04/28 09:36:01;;;;;;;0.85;0.85;;;25.00;35.30;;;17.39;51.90;95160.81;5299415;26;20025;-52
2024/04/28 09:38:30;;;;;;;1.75;0.82;;;25.00;34.90;;;17.57;50.62;95165.88;5296211;26;20024;-54
2024/04/28 09:41:00;;;;;;;1.63;1.30;;;25.00;34.70;;;17.96;50.89;95152.53;5305382;26;20455;-55
2024/04/28 09:43:28;;;;;;;2.05;0.80;;;25.30;34.60;;;18.24;49.15;95164.50;5300028;26;20645;-51
2024/04/28 09:45:55;;;;;;;0.90;0.90;;;25.60;34.30;;;18.29;48.70;95176.19;5283118;27;20023;-54
2024/04/28 09:48:22;;;;;;;0.75;0.75;;;25.90;33.90;;;18.08;48.77;95178.78;5310524;26;20482;-52
2024/04/28 09:50:49;;;;;;;2.38;0.70;;;26.00;33.20;;;18.33;48.69;95187.91;5299113;26;20006;-50
2024/04/28 09:53:16;;;;;;;1.13;1.00;;;26.00;33.00;;;18.80;47.45;95177.09;5305725;26;20005;-52
2024/04/28 09:55:42;;;;;;;0.85;0.80;;;26.20;33.00;;;18.77;46.76;95185.84;5302172;26;20045;-56
2024/04/28 09:58:08;;;;;;;0.70;0.70;;;26.40;32.80;;;18.87;46.53;95180.88;5309517;26;20009;-55
2024/04/28 10:00:35;;;;;;;1.45;0.90;;;26.20;32.50;;;18.82;46.73;95172.16;5307203;26;20016;-56
2024/04/28 10:03:08;;;;;;;1.05;0.90;;;26.20;32.60;;;18.86;46.84;95173.09;5296877;26;20001;-55
2024/04/28 10:05:39;;;;;;;1.65;0.70;;;26.40;32.50;;;19.08;46.09;95167.38;5335476;21;20437;-49
2024/04/28 10:08:16;;;;;;;0.90;0.90;;;26.70;32.30;;;19.25;46.03;95168.38;5302252;26;20468;-49
2024/04/28 10:10:43;;;;;;;1.08;0.82;;;26.90;32.10;;;19.51;45.36;95170.88;5315739;26;20480;-48
2024/04/28 10:13:19;;;;;;;0.90;0.90;;;27.10;31.80;;;19.87;45.05;95176.44;5302289;26;20027;-48
2024/04/28 10:15:46;;;;;;;0.80;0.80;;;27.40;31.40;;;20.24;43.78;95171.09;5304265;26;20017;-49
2024/04/28 10:18:15;;;;;;;1.05;1.00;;;27.80;31.20;;;20.49;43.26;95184.66;5312139;26;20016;-49
2024/04/28 10:20:47;;;;;;;0.93;0.93;;;28.10;31.00;;;20.70;41.27;95182.66;5295448;26;20223;-48
2024/04/28 10:23:13;;;;;;;0.80;0.80;;;28.50;30.40;;;20.68;42.42;95173.31;5317715;26;20012;-52
2024/04/28 10:25:48;;;;;;;1.25;1.15;;;28.70;29.90;;;20.62;42.33;95170.06;5300868;26;20009;-50